TimeEST,TemperatureF,Dew PointF,Humidity,Sea Level PressureIn,VisibilityMPH,Wind Direction,Wind SpeedMPH,Gust SpeedMPH,PrecipitationIn,Events,Conditions,WindDirDegrees,DateUTC
12:54 AM,7.0,-2.0,67,30.18,10.0,Variable,3.5,-,N/A,,Clear,0,2013-02-10 05:54:00
1:54 AM,5.0,-2.0,73,30.21,10.0,Calm,Calm,-,N/A,,Clear,0,2013-02-10 06:54:00
2:54 AM,3.9,-5.1,66,30.22,10.0,WNW,4.6,-,N/A,,Clear,300,2013-02-10 07:54:00
3:54 AM,-2.0,-6.0,83,30.23,10.0,West,3.5,-,N/A,,Clear,280,2013-02-10 08:54:00
4:54 AM,-6.0,-9.0,87,30.25,10.0,WSW,3.5,-,N/A,,Clear,240,2013-02-10 09:54:00
5:54 AM,-6.0,-9.0,87,30.28,10.0,Calm,Calm,-,N/A,,Clear,0,2013-02-10 10:54:00
6:54 AM,-9.9,-11.9,91,30.31,10.0,West,3.5,-,N/A,,Clear,270,2013-02-10 11:54:00
7:54 AM,-0.9,-4.0,87,30.32,10.0,Calm,Calm,-,N/A,,Clear,0,2013-02-10 12:54:00
8:54 AM,16.0,3.9,59,30.34,10.0,Calm,Calm,-,N/A,,Clear,0,2013-02-10 13:54:00
9:54 AM,26.1,-11.9,19,30.35,10.0,Calm,Calm,-,0.00,,Clear,0,2013-02-10 14:54:00
10:54 AM,28.0,-9.0,20,30.36,10.0,NNW,5.8,-,0.00,,Clear,340,2013-02-10 15:54:00
11:54 AM,32.0,-7.1,18,30.35,10.0,Calm,Calm,-,0.00,,Clear,0,2013-02-10 16:54:00
12:54 PM,33.1,-2.0,22,30.34,10.0,ESE,3.5,-,0.00,Rain,Light Rain,110,2013-02-10 17:54:00
1:54 PM,36.0,-2.0,20,30.32,10.0,North,3.5,-,0.00,,Clear,350,2013-02-10 18:54:00
2:54 PM,36.0,-5.1,17,30.31,10.0,Variable,5.8,-,N/A,,Clear,0,2013-02-10 19:54:00
3:54 PM,35.1,-4.0,19,30.32,10.0,NE,5.8,-,0.00,Rain,Light Rain,40,2013-02-10 20:54:00
4:54 PM,30.0,-2.9,24,30.35,10.0,Calm,Calm,-,0.00,,Clear,0,2013-02-10 21:54:00
5:54 PM,21.9,1.9,42,30.35,10.0,West,3.5,-,N/A,,Clear,260,2013-02-10 22:54:00
6:54 PM,19.9,3.0,48,30.35,10.0,Calm,Calm,-,N/A,,Clear,0,2013-02-10 23:54:00
7:54 PM,15.1,1.9,56,30.36,10.0,Calm,Calm,-,N/A,,Clear,0,2013-02-11 00:54:00
8:54 PM,12.0,1.9,64,30.35,10.0,Calm,Calm,-,N/A,,Clear,0,2013-02-11 01:54:00
9:54 PM,10.0,1.0,67,30.34,10.0,Calm,Calm,-,N/A,,Clear,0,2013-02-11 02:54:00
10:54 PM,8.1,1.0,73,30.35,10.0,Calm,Calm,-,N/A,,Clear,0,2013-02-11 03:54:00
11:54 PM,6.1,1.0,80,30.35,10.0,Calm,Calm,-,N/A,,Clear,0,2013-02-11 04:54:00